sensor_id;sensor_type;location;lat;lon;timestamp;P1;durP1;ratioP1;P2;durP2;ratioP2
34960;SDS011;30789;52.030;7.110;2023-07-09T00:00:03;8.75;;;4.93;;
34960;SDS011;30789;52.030;7.110;2023-07-09T00:02:39;9.48;;;5.53;;
34960;SDS011;30789;52.030;7.110;2023-07-09T00:05:07;11.98;;;5.25;;
34960;SDS011;30789;52.030;7.110;2023-07-09T00:07:37;6.60;;;5.00;;
34960;SDS011;30789;52.030;7.110;2023-07-09T00:10:05;7.75;;;4.53;;
34960;SDS011;30789;52.030;7.110;2023-07-09T00:12:41;8.07;;;4.60;;
34960;SDS011;30789;52.030;7.110;2023-07-09T00:15:08;9.45;;;5.30;;
34960;SDS011;30789;52.030;7.110;2023-07-09T00:17:36;6.05;;;4.38;;
34960;SDS011;30789;52.030;7.110;2023-07-09T00:20:05;7.28;;;4.88;;
34960;SDS011;30789;52.030;7.110;2023-07-09T00:22:36;7.65;;;5.32;;
34960;SDS011;30789;52.030;7.110;2023-07-09T00:25:04;6.50;;;4.43;;
34960;SDS011;30789;52.030;7.110;2023-07-09T00:27:31;6.65;;;4.68;;
34960;SDS011;30789;52.030;7.110;2023-07-09T00:29:59;6.93;;;4.63;;
34960;SDS011;30789;52.030;7.110;2023-07-09T00:32:25;7.45;;;5.35;;
34960;SDS011;30789;52.030;7.110;2023-07-09T00:34:53;6.82;;;4.50;;
34960;SDS011;30789;52.030;7.110;2023-07-09T00:37:21;6.25;;;4.70;;
34960;SDS011;30789;52.030;7.110;2023-07-09T00:39:51;6.38;;;4.55;;
34960;SDS011;30789;52.030;7.110;2023-07-09T00:42:18;6.43;;;4.80;;
34960;SDS011;30789;52.030;7.110;2023-07-09T00:44:50;7.10;;;4.35;;
34960;SDS011;30789;52.030;7.110;2023-07-09T00:47:20;6.93;;;4.50;;
34960;SDS011;30789;52.030;7.110;2023-07-09T00:49:50;6.03;;;4.80;;
34960;SDS011;30789;52.030;7.110;2023-07-09T00:52:29;6.05;;;4.40;;
34960;SDS011;30789;52.030;7.110;2023-07-09T00:55:01;7.68;;;4.80;;
34960;SDS011;30789;52.030;7.110;2023-07-09T00:57:32;5.88;;;4.25;;
34960;SDS011;30789;52.030;7.110;2023-07-09T01:00:04;5.90;;;4.47;;
34960;SDS011;30789;52.030;7.110;2023-07-09T01:05:03;7.88;;;4.78;;
34960;SDS011;30789;52.030;7.110;2023-07-09T01:07:31;12.32;;;5.00;;
34960;SDS011;30789;52.030;7.110;2023-07-09T01:09:57;7.85;;;4.93;;
34960;SDS011;30789;52.030;7.110;2023-07-09T01:12:24;6.85;;;4.63;;
34960;SDS011;30789;52.030;7.110;2023-07-09T01:14:52;6.30;;;4.63;;
34960;SDS011;30789;52.030;7.110;2023-07-09T01:17:23;6.00;;;4.32;;
34960;SDS011;30789;52.030;7.110;2023-07-09T01:19:54;8.98;;;4.90;;
34960;SDS011;30789;52.030;7.110;2023-07-09T01:22:23;8.90;;;5.13;;
34960;SDS011;30789;52.030;7.110;2023-07-09T01:24:51;8.02;;;4.55;;
34960;SDS011;30789;52.030;7.110;2023-07-09T01:27:22;10.18;;;5.25;;
34960;SDS011;30789;52.030;7.110;2023-07-09T01:29:51;6.20;;;4.97;;
34960;SDS011;30789;52.030;7.110;2023-07-09T01:32:19;8.18;;;4.70;;
34960;SDS011;30789;52.030;7.110;2023-07-09T01:34:47;6.32;;;4.55;;
34960;SDS011;30789;52.030;7.110;2023-07-09T01:37:18;12.25;;;5.18;;
34960;SDS011;30789;52.030;7.110;2023-07-09T01:39:48;7.30;;;4.90;;
34960;SDS011;30789;52.030;7.110;2023-07-09T01:42:15;7.10;;;5.10;;
34960;SDS011;30789;52.030;7.110;2023-07-09T01:44:42;8.45;;;5.13;;
34960;SDS011;30789;52.030;7.110;2023-07-09T01:47:10;6.53;;;4.93;;
34960;SDS011;30789;52.030;7.110;2023-07-09T01:49:36;8.25;;;5.55;;
34960;SDS011;30789;52.030;7.110;2023-07-09T01:52:05;7.22;;;5.15;;
34960;SDS011;30789;52.030;7.110;2023-07-09T01:54:34;6.05;;;5.00;;
34960;SDS011;30789;52.030;7.110;2023-07-09T01:57:14;8.48;;;5.40;;
34960;SDS011;30789;52.030;7.110;2023-07-09T01:59:44;8.13;;;5.40;;
34960;SDS011;30789;52.030;7.110;2023-07-09T02:02:11;7.43;;;5.32;;
34960;SDS011;30789;52.030;7.110;2023-07-09T02:04:44;11.10;;;5.63;;
34960;SDS011;30789;52.030;7.110;2023-07-09T02:07:14;8.70;;;5.03;;
34960;SDS011;30789;52.030;7.110;2023-07-09T02:09:41;7.57;;;4.68;;
34960;SDS011;30789;52.030;7.110;2023-07-09T02:12:08;7.57;;;5.20;;
34960;SDS011;30789;52.030;7.110;2023-07-09T02:14:37;6.93;;;5.20;;
34960;SDS011;30789;52.030;7.110;2023-07-09T02:17:04;9.35;;;5.20;;
34960;SDS011;30789;52.030;7.110;2023-07-09T02:19:30;5.72;;;4.63;;
34960;SDS011;30789;52.030;7.110;2023-07-09T02:21:57;7.05;;;5.10;;
34960;SDS011;30789;52.030;7.110;2023-07-09T02:24:24;8.52;;;5.13;;
34960;SDS011;30789;52.030;7.110;2023-07-09T02:26:52;7.68;;;5.63;;
34960;SDS011;30789;52.030;7.110;2023-07-09T02:29:19;8.65;;;4.70;;
34960;SDS011;30789;52.030;7.110;2023-07-09T02:31:47;6.32;;;4.80;;
34960;SDS011;30789;52.030;7.110;2023-07-09T02:34:14;7.30;;;5.53;;
34960;SDS011;30789;52.030;7.110;2023-07-09T02:36:40;10.32;;;5.90;;
34960;SDS011;30789;52.030;7.110;2023-07-09T02:39:08;9.60;;;5.07;;
34960;SDS011;30789;52.030;7.110;2023-07-09T02:41:34;5.55;;;4.93;;
34960;SDS011;30789;52.030;7.110;2023-07-09T02:44:01;9.32;;;5.43;;
34960;SDS011;30789;52.030;7.110;2023-07-09T02:46:28;6.35;;;5.20;;
34960;SDS011;30789;52.030;7.110;2023-07-09T02:48:56;8.73;;;5.65;;
34960;SDS011;30789;52.030;7.110;2023-07-09T02:51:22;9.43;;;5.45;;
34960;SDS011;30789;52.030;7.110;2023-07-09T02:53:51;9.20;;;5.68;;
34960;SDS011;30789;52.030;7.110;2023-07-09T02:56:19;6.55;;;4.70;;
34960;SDS011;30789;52.030;7.110;2023-07-09T02:58:45;8.23;;;5.38;;
34960;SDS011;30789;52.030;7.110;2023-07-09T03:01:12;9.82;;;5.88;;
34960;SDS011;30789;52.030;7.110;2023-07-09T03:03:38;7.30;;;5.13;;
34960;SDS011;30789;52.030;7.110;2023-07-09T03:06:07;7.07;;;4.95;;
34960;SDS011;30789;52.030;7.110;2023-07-09T03:08:33;7.00;;;5.30;;
34960;SDS011;30789;52.030;7.110;2023-07-09T03:11:00;8.00;;;4.80;;
34960;SDS011;30789;52.030;7.110;2023-07-09T03:13:35;8.05;;;5.35;;
34960;SDS011;30789;52.030;7.110;2023-07-09T03:16:01;9.48;;;5.35;;
34960;SDS011;30789;52.030;7.110;2023-07-09T03:18:28;7.95;;;5.50;;
34960;SDS011;30789;52.030;7.110;2023-07-09T03:20:54;9.10;;;5.72;;
34960;SDS011;30789;52.030;7.110;2023-07-09T03:23:22;9.85;;;5.40;;
34960;SDS011;30789;52.030;7.110;2023-07-09T03:25:49;11.40;;;6.05;;
34960;SDS011;30789;52.030;7.110;2023-07-09T03:28:15;7.95;;;5.60;;
34960;SDS011;30789;52.030;7.110;2023-07-09T03:30:43;7.05;;;5.07;;
34960;SDS011;30789;52.030;7.110;2023-07-09T03:33:11;7.50;;;5.20;;
34960;SDS011;30789;52.030;7.110;2023-07-09T03:35:38;9.55;;;5.95;;
34960;SDS011;30789;52.030;7.110;2023-07-09T03:38:05;7.88;;;5.35;;
34960;SDS011;30789;52.030;7.110;2023-07-09T03:40:34;6.90;;;5.10;;
34960;SDS011;30789;52.030;7.110;2023-07-09T03:43:02;8.60;;;5.10;;
34960;SDS011;30789;52.030;7.110;2023-07-09T03:45:28;9.05;;;5.68;;
34960;SDS011;30789;52.030;7.110;2023-07-09T03:47:55;7.35;;;5.38;;
34960;SDS011;30789;52.030;7.110;2023-07-09T03:50:21;15.18;;;5.93;;
34960;SDS011;30789;52.030;7.110;2023-07-09T03:52:48;7.55;;;5.43;;
34960;SDS011;30789;52.030;7.110;2023-07-09T03:55:14;6.43;;;4.82;;
34960;SDS011;30789;52.030;7.110;2023-07-09T03:57:42;8.30;;;5.15;;
34960;SDS011;30789;52.030;7.110;2023-07-09T04:00:09;7.90;;;5.22;;
34960;SDS011;30789;52.030;7.110;2023-07-09T04:02:36;11.85;;;5.93;;
34960;SDS011;30789;52.030;7.110;2023-07-09T04:05:04;8.05;;;5.43;;
34960;SDS011;30789;52.030;7.110;2023-07-09T04:07:33;7.65;;;5.32;;
34960;SDS011;30789;52.030;7.110;2023-07-09T04:10:00;8.00;;;5.40;;
34960;SDS011;30789;52.030;7.110;2023-07-09T04:12:26;8.30;;;5.35;;
34960;SDS011;30789;52.030;7.110;2023-07-09T04:14:55;9.10;;;5.68;;
34960;SDS011;30789;52.030;7.110;2023-07-09T04:17:21;8.10;;;4.93;;
34960;SDS011;30789;52.030;7.110;2023-07-09T04:19:49;9.10;;;5.15;;
34960;SDS011;30789;52.030;7.110;2023-07-09T04:22:16;9.32;;;5.60;;
34960;SDS011;30789;52.030;7.110;2023-07-09T04:24:43;7.32;;;5.13;;
34960;SDS011;30789;52.030;7.110;2023-07-09T04:27:09;6.57;;;5.30;;
34960;SDS011;30789;52.030;7.110;2023-07-09T04:29:36;7.97;;;5.10;;
34960;SDS011;30789;52.030;7.110;2023-07-09T04:32:05;7.20;;;5.20;;
34960;SDS011;30789;52.030;7.110;2023-07-09T04:34:32;6.05;;;4.85;;
34960;SDS011;30789;52.030;7.110;2023-07-09T04:36:58;8.65;;;5.30;;
34960;SDS011;30789;52.030;7.110;2023-07-09T04:39:25;9.10;;;5.32;;
34960;SDS011;30789;52.030;7.110;2023-07-09T04:41:51;5.90;;;4.57;;
34960;SDS011;30789;52.030;7.110;2023-07-09T04:44:18;7.38;;;5.05;;
34960;SDS011;30789;52.030;7.110;2023-07-09T04:46:44;7.88;;;5.20;;
34960;SDS011;30789;52.030;7.110;2023-07-09T04:49:12;7.05;;;5.15;;
34960;SDS011;30789;52.030;7.110;2023-07-09T04:51:39;8.57;;;5.15;;
34960;SDS011;30789;52.030;7.110;2023-07-09T04:54:05;8.18;;;5.20;;
34960;SDS011;30789;52.030;7.110;2023-07-09T04:56:31;7.80;;;5.15;;
34960;SDS011;30789;52.030;7.110;2023-07-09T04:58:58;7.47;;;5.35;;
34960;SDS011;30789;52.030;7.110;2023-07-09T05:01:25;7.13;;;4.72;;
34960;SDS011;30789;52.030;7.110;2023-07-09T05:03:52;6.57;;;5.20;;
34960;SDS011;30789;52.030;7.110;2023-07-09T05:06:20;9.73;;;4.63;;
34960;SDS011;30789;52.030;7.110;2023-07-09T05:08:46;7.90;;;5.10;;
34960;SDS011;30789;52.030;7.110;2023-07-09T05:11:14;5.95;;;4.25;;
34960;SDS011;30789;52.030;7.110;2023-07-09T05:13:41;5.85;;;4.47;;
34960;SDS011;30789;52.030;7.110;2023-07-09T05:16:07;7.72;;;4.75;;
34960;SDS011;30789;52.030;7.110;2023-07-09T05:18:34;6.65;;;4.47;;
34960;SDS011;30789;52.030;7.110;2023-07-09T05:21:00;10.60;;;5.32;;
34960;SDS011;30789;52.030;7.110;2023-07-09T05:23:28;7.60;;;5.03;;
34960;SDS011;30789;52.030;7.110;2023-07-09T05:25:55;7.75;;;5.03;;
34960;SDS011;30789;52.030;7.110;2023-07-09T05:28:22;7.80;;;4.80;;
34960;SDS011;30789;52.030;7.110;2023-07-09T05:30:49;7.13;;;5.10;;
34960;SDS011;30789;52.030;7.110;2023-07-09T05:33:16;7.00;;;4.60;;
34960;SDS011;30789;52.030;7.110;2023-07-09T05:35:43;6.00;;;4.43;;
34960;SDS011;30789;52.030;7.110;2023-07-09T05:38:10;8.85;;;4.68;;
34960;SDS011;30789;52.030;7.110;2023-07-09T05:40:39;6.97;;;5.03;;
34960;SDS011;30789;52.030;7.110;2023-07-09T05:43:05;6.03;;;4.20;;
34960;SDS011;30789;52.030;7.110;2023-07-09T05:45:32;8.48;;;4.22;;
34960;SDS011;30789;52.030;7.110;2023-07-09T05:47:58;7.70;;;4.72;;
34960;SDS011;30789;52.030;7.110;2023-07-09T05:50:25;7.80;;;4.63;;
34960;SDS011;30789;52.030;7.110;2023-07-09T05:52:52;10.93;;;4.82;;
34960;SDS011;30789;52.030;7.110;2023-07-09T05:55:18;7.47;;;4.63;;
34960;SDS011;30789;52.030;7.110;2023-07-09T05:57:46;8.70;;;4.95;;
34960;SDS011;30789;52.030;7.110;2023-07-09T06:00:13;5.80;;;4.60;;
34960;SDS011;30789;52.030;7.110;2023-07-09T06:02:40;6.50;;;4.40;;
34960;SDS011;30789;52.030;7.110;2023-07-09T06:05:07;8.27;;;4.15;;
34960;SDS011;30789;52.030;7.110;2023-07-09T06:07:36;7.78;;;4.35;;
34960;SDS011;30789;52.030;7.110;2023-07-09T06:10:02;7.93;;;4.38;;
34960;SDS011;30789;52.030;7.110;2023-07-09T06:12:31;10.73;;;5.25;;
34960;SDS011;30789;52.030;7.110;2023-07-09T06:14:59;8.45;;;5.05;;
34960;SDS011;30789;52.030;7.110;2023-07-09T06:17:26;7.55;;;4.75;;
34960;SDS011;30789;52.030;7.110;2023-07-09T06:19:52;7.47;;;4.68;;
34960;SDS011;30789;52.030;7.110;2023-07-09T06:22:19;7.72;;;4.68;;
34960;SDS011;30789;52.030;7.110;2023-07-09T06:24:45;6.47;;;4.05;;
34960;SDS011;30789;52.030;7.110;2023-07-09T06:27:12;6.40;;;4.40;;
34960;SDS011;30789;52.030;7.110;2023-07-09T06:29:38;9.02;;;5.22;;
34960;SDS011;30789;52.030;7.110;2023-07-09T06:32:07;6.82;;;4.38;;
34960;SDS011;30789;52.030;7.110;2023-07-09T06:34:33;8.25;;;5.22;;
34960;SDS011;30789;52.030;7.110;2023-07-09T06:37:00;9.85;;;4.57;;
34960;SDS011;30789;52.030;7.110;2023-07-09T06:39:26;6.60;;;4.72;;
34960;SDS011;30789;52.030;7.110;2023-07-09T06:41:53;6.72;;;4.25;;
34960;SDS011;30789;52.030;7.110;2023-07-09T06:44:19;6.47;;;4.60;;
34960;SDS011;30789;52.030;7.110;2023-07-09T06:46:46;6.88;;;4.53;;
34960;SDS011;30789;52.030;7.110;2023-07-09T06:49:14;7.68;;;4.22;;
34960;SDS011;30789;52.030;7.110;2023-07-09T06:51:41;6.93;;;4.20;;
34960;SDS011;30789;52.030;7.110;2023-07-09T06:54:07;6.18;;;4.22;;
34960;SDS011;30789;52.030;7.110;2023-07-09T06:56:34;7.00;;;4.85;;
34960;SDS011;30789;52.030;7.110;2023-07-09T06:59:01;5.30;;;4.43;;
34960;SDS011;30789;52.030;7.110;2023-07-09T07:01:27;7.55;;;5.00;;
34960;SDS011;30789;52.030;7.110;2023-07-09T07:03:54;7.28;;;4.60;;
34960;SDS011;30789;52.030;7.110;2023-07-09T07:06:21;8.98;;;5.40;;
34960;SDS011;30789;52.030;7.110;2023-07-09T07:08:48;9.27;;;5.15;;
34960;SDS011;30789;52.030;7.110;2023-07-09T07:11:14;8.45;;;4.68;;
34960;SDS011;30789;52.030;7.110;2023-07-09T07:13:41;7.78;;;5.03;;
34960;SDS011;30789;52.030;7.110;2023-07-09T07:16:08;6.53;;;4.90;;
34960;SDS011;30789;52.030;7.110;2023-07-09T07:18:36;8.38;;;4.93;;
34960;SDS011;30789;52.030;7.110;2023-07-09T07:21:03;7.30;;;5.32;;
34960;SDS011;30789;52.030;7.110;2023-07-09T07:23:32;6.53;;;4.60;;
34960;SDS011;30789;52.030;7.110;2023-07-09T07:25:58;7.43;;;4.80;;
34960;SDS011;30789;52.030;7.110;2023-07-09T07:28:25;12.90;;;6.03;;
34960;SDS011;30789;52.030;7.110;2023-07-09T07:30:58;7.47;;;4.80;;
34960;SDS011;30789;52.030;7.110;2023-07-09T07:33:25;9.75;;;5.43;;
34960;SDS011;30789;52.030;7.110;2023-07-09T07:35:52;10.48;;;5.63;;
34960;SDS011;30789;52.030;7.110;2023-07-09T07:38:18;6.07;;;4.93;;
34960;SDS011;30789;52.030;7.110;2023-07-09T07:40:46;10.57;;;4.97;;
34960;SDS011;30789;52.030;7.110;2023-07-09T07:43:13;7.90;;;5.78;;
34960;SDS011;30789;52.030;7.110;2023-07-09T07:45:39;8.70;;;5.38;;
34960;SDS011;30789;52.030;7.110;2023-07-09T07:48:06;8.20;;;5.13;;
34960;SDS011;30789;52.030;7.110;2023-07-09T07:50:33;11.18;;;6.25;;
34960;SDS011;30789;52.030;7.110;2023-07-09T07:52:59;7.85;;;4.93;;
34960;SDS011;30789;52.030;7.110;2023-07-09T07:55:26;7.97;;;5.95;;
34960;SDS011;30789;52.030;7.110;2023-07-09T07:57:54;8.45;;;5.43;;
34960;SDS011;30789;52.030;7.110;2023-07-09T08:00:22;10.60;;;6.40;;
34960;SDS011;30789;52.030;7.110;2023-07-09T08:02:48;10.23;;;5.78;;
34960;SDS011;30789;52.030;7.110;2023-07-09T08:05:15;7.70;;;5.80;;
34960;SDS011;30789;52.030;7.110;2023-07-09T08:07:42;12.80;;;5.95;;
34960;SDS011;30789;52.030;7.110;2023-07-09T08:10:09;8.20;;;5.63;;
34960;SDS011;30789;52.030;7.110;2023-07-09T08:12:36;10.63;;;5.80;;
34960;SDS011;30789;52.030;7.110;2023-07-09T08:15:05;12.07;;;6.03;;
34960;SDS011;30789;52.030;7.110;2023-07-09T08:17:32;7.57;;;5.40;;
34960;SDS011;30789;52.030;7.110;2023-07-09T08:19:59;9.43;;;5.45;;
34960;SDS011;30789;52.030;7.110;2023-07-09T08:22:25;8.82;;;5.50;;
34960;SDS011;30789;52.030;7.110;2023-07-09T08:24:52;7.20;;;5.13;;
34960;SDS011;30789;52.030;7.110;2023-07-09T08:27:19;9.05;;;5.85;;
34960;SDS011;30789;52.030;7.110;2023-07-09T08:29:45;8.98;;;5.50;;
34960;SDS011;30789;52.030;7.110;2023-07-09T08:32:13;7.32;;;5.20;;
34960;SDS011;30789;52.030;7.110;2023-07-09T08:34:41;12.90;;;6.55;;
34960;SDS011;30789;52.030;7.110;2023-07-09T08:37:08;11.27;;;5.45;;
34960;SDS011;30789;52.030;7.110;2023-07-09T08:39:34;7.85;;;5.60;;
34960;SDS011;30789;52.030;7.110;2023-07-09T08:42:02;9.10;;;5.72;;
34960;SDS011;30789;52.030;7.110;2023-07-09T08:44:58;6.60;;;4.88;;
34960;SDS011;30789;52.030;7.110;2023-07-09T08:47:36;11.80;;;5.63;;
34960;SDS011;30789;52.030;7.110;2023-07-09T08:50:13;11.35;;;6.20;;
34960;SDS011;30789;52.030;7.110;2023-07-09T08:52:43;9.75;;;5.47;;
34960;SDS011;30789;52.030;7.110;2023-07-09T08:55:11;7.63;;;5.45;;
34960;SDS011;30789;52.030;7.110;2023-07-09T08:57:42;10.02;;;5.68;;
34960;SDS011;30789;52.030;7.110;2023-07-09T09:00:14;11.23;;;5.30;;
34960;SDS011;30789;52.030;7.110;2023-07-09T09:02:46;6.35;;;5.15;;
34960;SDS011;30789;52.030;7.110;2023-07-09T09:05:18;8.90;;;5.32;;
34960;SDS011;30789;52.030;7.110;2023-07-09T09:07:48;7.55;;;4.82;;
34960;SDS011;30789;52.030;7.110;2023-07-09T09:10:19;7.10;;;4.85;;
34960;SDS011;30789;52.030;7.110;2023-07-09T09:12:55;8.48;;;5.47;;
34960;SDS011;30789;52.030;7.110;2023-07-09T09:15:29;13.05;;;5.97;;
34960;SDS011;30789;52.030;7.110;2023-07-09T09:20:45;6.57;;;5.13;;
34960;SDS011;30789;52.030;7.110;2023-07-09T09:23:17;8.43;;;4.70;;
34960;SDS011;30789;52.030;7.110;2023-07-09T09:25:44;7.32;;;4.95;;
34960;SDS011;30789;52.030;7.110;2023-07-09T09:28:15;9.45;;;5.13;;
34960;SDS011;30789;52.030;7.110;2023-07-09T09:30:42;7.95;;;4.60;;
34960;SDS011;30789;52.030;7.110;2023-07-09T09:33:09;11.73;;;4.75;;
34960;SDS011;30789;52.030;7.110;2023-07-09T09:35:39;7.68;;;4.82;;
34960;SDS011;30789;52.030;7.110;2023-07-09T09:38:09;6.95;;;4.70;;
34960;SDS011;30789;52.030;7.110;2023-07-09T09:40:37;6.72;;;4.95;;
34960;SDS011;30789;52.030;7.110;2023-07-09T09:43:09;6.50;;;4.70;;
34960;SDS011;30789;52.030;7.110;2023-07-09T09:45:39;7.60;;;4.80;;
34960;SDS011;30789;52.030;7.110;2023-07-09T09:48:10;7.57;;;5.10;;
34960;SDS011;30789;52.030;7.110;2023-07-09T09:50:42;8.27;;;4.93;;
34960;SDS011;30789;52.030;7.110;2023-07-09T09:53:12;6.30;;;4.70;;
34960;SDS011;30789;52.030;7.110;2023-07-09T09:55:45;7.47;;;4.57;;
34960;SDS011;30789;52.030;7.110;2023-07-09T09:58:12;6.63;;;4.75;;
34960;SDS011;30789;52.030;7.110;2023-07-09T10:00:46;5.18;;;4.03;;
34960;SDS011;30789;52.030;7.110;2023-07-09T10:03:15;7.05;;;4.18;;
34960;SDS011;30789;52.030;7.110;2023-07-09T10:05:43;6.43;;;4.38;;
34960;SDS011;30789;52.030;7.110;2023-07-09T10:08:15;6.15;;;3.90;;
34960;SDS011;30789;52.030;7.110;2023-07-09T10:10:51;6.80;;;4.32;;
34960;SDS011;30789;52.030;7.110;2023-07-09T10:13:20;5.20;;;4.32;;
34960;SDS011;30789;52.030;7.110;2023-07-09T10:15:56;9.23;;;4.43;;
34960;SDS011;30789;52.030;7.110;2023-07-09T10:18:31;6.50;;;4.53;;
34960;SDS011;30789;52.030;7.110;2023-07-09T10:21:08;5.75;;;4.35;;
34960;SDS011;30789;52.030;7.110;2023-07-09T10:23:43;11.05;;;5.03;;
34960;SDS011;30789;52.030;7.110;2023-07-09T10:26:20;6.93;;;4.80;;
34960;SDS011;30789;52.030;7.110;2023-07-09T10:28:56;5.45;;;4.88;;
34960;SDS011;30789;52.030;7.110;2023-07-09T10:31:37;6.53;;;4.60;;
34960;SDS011;30789;52.030;7.110;2023-07-09T10:34:15;8.00;;;5.25;;
34960;SDS011;30789;52.030;7.110;2023-07-09T10:37:00;7.55;;;4.68;;
34960;SDS011;30789;52.030;7.110;2023-07-09T10:39:42;6.78;;;4.43;;
34960;SDS011;30789;52.030;7.110;2023-07-09T10:42:13;5.70;;;4.80;;
34960;SDS011;30789;52.030;7.110;2023-07-09T10:44:50;8.23;;;5.05;;
34960;SDS011;30789;52.030;7.110;2023-07-09T10:47:24;6.20;;;4.68;;
34960;SDS011;30789;52.030;7.110;2023-07-09T10:49:54;7.32;;;4.78;;
34960;SDS011;30789;52.030;7.110;2023-07-09T10:52:27;8.17;;;5.10;;
34960;SDS011;30789;52.030;7.110;2023-07-09T10:54:57;8.68;;;4.53;;
34960;SDS011;30789;52.030;7.110;2023-07-09T10:57:29;8.95;;;4.70;;
34960;SDS011;30789;52.030;7.110;2023-07-09T10:59:57;6.95;;;4.00;;
34960;SDS011;30789;52.030;7.110;2023-07-09T11:02:26;6.25;;;4.18;;
34960;SDS011;30789;52.030;7.110;2023-07-09T11:04:56;7.70;;;4.88;;
34960;SDS011;30789;52.030;7.110;2023-07-09T11:07:27;4.20;;;3.80;;
34960;SDS011;30789;52.030;7.110;2023-07-09T11:09:57;6.07;;;4.70;;
34960;SDS011;30789;52.030;7.110;2023-07-09T11:12:27;8.00;;;4.38;;
34960;SDS011;30789;52.030;7.110;2023-07-09T11:15:00;6.68;;;4.32;;
34960;SDS011;30789;52.030;7.110;2023-07-09T11:17:29;7.85;;;4.30;;
34960;SDS011;30789;52.030;7.110;2023-07-09T11:19:59;4.10;;;3.70;;
34960;SDS011;30789;52.030;7.110;2023-07-09T11:22:35;5.25;;;3.92;;
34960;SDS011;30789;52.030;7.110;2023-07-09T11:25:05;4.78;;;3.95;;
34960;SDS011;30789;52.030;7.110;2023-07-09T11:27:33;5.20;;;3.70;;
34960;SDS011;30789;52.030;7.110;2023-07-09T11:30:19;6.35;;;4.03;;
34960;SDS011;30789;52.030;7.110;2023-07-09T11:32:47;6.35;;;3.70;;
34960;SDS011;30789;52.030;7.110;2023-07-09T11:35:20;4.93;;;4.00;;
34960;SDS011;30789;52.030;7.110;2023-07-09T11:37:50;6.65;;;3.50;;
34960;SDS011;30789;52.030;7.110;2023-07-09T11:40:18;5.22;;;4.20;;
34960;SDS011;30789;52.030;7.110;2023-07-09T11:42:49;6.13;;;3.72;;
34960;SDS011;30789;52.030;7.110;2023-07-09T11:45:19;6.68;;;3.88;;
34960;SDS011;30789;52.030;7.110;2023-07-09T11:47:51;5.65;;;3.60;;
34960;SDS011;30789;52.030;7.110;2023-07-09T11:50:26;4.38;;;3.90;;
34960;SDS011;30789;52.030;7.110;2023-07-09T11:52:58;7.65;;;3.85;;
34960;SDS011;30789;52.030;7.110;2023-07-09T11:55:27;6.55;;;3.88;;
34960;SDS011;30789;52.030;7.110;2023-07-09T11:57:55;6.53;;;3.80;;
34960;SDS011;30789;52.030;7.110;2023-07-09T12:00:24;4.95;;;3.50;;
34960;SDS011;30789;52.030;7.110;2023-07-09T12:05:21;4.43;;;3.50;;
34960;SDS011;30789;52.030;7.110;2023-07-09T12:07:52;5.25;;;3.88;;
34960;SDS011;30789;52.030;7.110;2023-07-09T12:10:21;4.40;;;3.53;;
34960;SDS011;30789;52.030;7.110;2023-07-09T12:17:57;6.47;;;3.70;;
34960;SDS011;30789;52.030;7.110;2023-07-09T12:20:25;5.70;;;3.63;;
34960;SDS011;30789;52.030;7.110;2023-07-09T12:22:55;6.57;;;3.88;;
34960;SDS011;30789;52.030;7.110;2023-07-09T12:25:24;8.82;;;3.70;;
34960;SDS011;30789;52.030;7.110;2023-07-09T12:27:53;3.63;;;3.10;;
34960;SDS011;30789;52.030;7.110;2023-07-09T12:30:20;6.88;;;3.50;;
34960;SDS011;30789;52.030;7.110;2023-07-09T12:32:47;5.53;;;3.90;;
34960;SDS011;30789;52.030;7.110;2023-07-09T12:35:17;7.57;;;3.90;;
34960;SDS011;30789;52.030;7.110;2023-07-09T12:37:45;3.78;;;3.33;;
34960;SDS011;30789;52.030;7.110;2023-07-09T12:40:14;6.10;;;3.45;;
34960;SDS011;30789;52.030;7.110;2023-07-09T12:42:46;11.43;;;4.13;;
34960;SDS011;30789;52.030;7.110;2023-07-09T12:45:17;4.95;;;3.67;;
34960;SDS011;30789;52.030;7.110;2023-07-09T12:47:45;4.85;;;3.60;;
34960;SDS011;30789;52.030;7.110;2023-07-09T12:50:21;7.57;;;3.90;;
34960;SDS011;30789;52.030;7.110;2023-07-09T12:53:00;5.60;;;4.18;;
34960;SDS011;30789;52.030;7.110;2023-07-09T12:55:29;7.20;;;4.03;;
34960;SDS011;30789;52.030;7.110;2023-07-09T12:58:09;5.28;;;3.97;;
34960;SDS011;30789;52.030;7.110;2023-07-09T13:00:47;5.90;;;3.90;;
34960;SDS011;30789;52.030;7.110;2023-07-09T13:03:18;7.22;;;3.58;;
34960;SDS011;30789;52.030;7.110;2023-07-09T13:05:55;4.88;;;3.63;;
34960;SDS011;30789;52.030;7.110;2023-07-09T13:08:27;7.95;;;4.10;;
34960;SDS011;30789;52.030;7.110;2023-07-09T13:10:54;12.18;;;4.40;;
34960;SDS011;30789;52.030;7.110;2023-07-09T13:13:23;5.93;;;4.20;;
34960;SDS011;30789;52.030;7.110;2023-07-09T13:15:51;7.00;;;4.03;;
34960;SDS011;30789;52.030;7.110;2023-07-09T13:18:22;6.13;;;3.65;;
34960;SDS011;30789;52.030;7.110;2023-07-09T13:20:49;5.10;;;4.03;;
34960;SDS011;30789;52.030;7.110;2023-07-09T13:23:18;7.57;;;4.10;;
34960;SDS011;30789;52.030;7.110;2023-07-09T13:25:46;6.60;;;3.88;;
34960;SDS011;30789;52.030;7.110;2023-07-09T13:28:16;5.40;;;4.00;;
34960;SDS011;30789;52.030;7.110;2023-07-09T13:30:47;5.03;;;4.20;;
34960;SDS011;30789;52.030;7.110;2023-07-09T13:33:14;7.65;;;4.65;;
34960;SDS011;30789;52.030;7.110;2023-07-09T13:35:43;5.07;;;3.97;;
34960;SDS011;30789;52.030;7.110;2023-07-09T13:38:13;8.75;;;4.25;;
34960;SDS011;30789;52.030;7.110;2023-07-09T13:40:40;5.07;;;3.53;;
34960;SDS011;30789;52.030;7.110;2023-07-09T13:43:11;6.55;;;3.90;;
34960;SDS011;30789;52.030;7.110;2023-07-09T13:45:39;4.85;;;4.35;;
34960;SDS011;30789;52.030;7.110;2023-07-09T13:48:10;6.13;;;4.38;;
34960;SDS011;30789;52.030;7.110;2023-07-09T13:50:41;5.72;;;4.22;;
34960;SDS011;30789;52.030;7.110;2023-07-09T13:53:10;8.27;;;4.28;;
34960;SDS011;30789;52.030;7.110;2023-07-09T13:55:39;4.30;;;3.80;;
34960;SDS011;30789;52.030;7.110;2023-07-09T13:58:07;17.60;;;4.43;;
34960;SDS011;30789;52.030;7.110;2023-07-09T14:00:34;9.68;;;4.30;;
34960;SDS011;30789;52.030;7.110;2023-07-09T14:03:07;6.27;;;4.30;;
34960;SDS011;30789;52.030;7.110;2023-07-09T14:05:39;6.63;;;4.40;;
34960;SDS011;30789;52.030;7.110;2023-07-09T14:08:06;8.68;;;4.50;;
34960;SDS011;30789;52.030;7.110;2023-07-09T14:10:36;8.20;;;4.28;;
34960;SDS011;30789;52.030;7.110;2023-07-09T14:13:03;5.55;;;4.70;;
34960;SDS011;30789;52.030;7.110;2023-07-09T14:15:30;5.80;;;3.97;;
34960;SDS011;30789;52.030;7.110;2023-07-09T14:17:58;8.00;;;4.18;;
34960;SDS011;30789;52.030;7.110;2023-07-09T14:20:26;8.63;;;4.15;;
34960;SDS011;30789;52.030;7.110;2023-07-09T14:22:55;6.23;;;4.40;;
34960;SDS011;30789;52.030;7.110;2023-07-09T14:25:24;5.00;;;4.32;;
34960;SDS011;30789;52.030;7.110;2023-07-09T14:27:53;9.25;;;3.95;;
34960;SDS011;30789;52.030;7.110;2023-07-09T14:30:21;7.18;;;3.97;;
34960;SDS011;30789;52.030;7.110;2023-07-09T14:32:50;6.65;;;3.97;;
34960;SDS011;30789;52.030;7.110;2023-07-09T14:35:18;5.32;;;3.78;;
34960;SDS011;30789;52.030;7.110;2023-07-09T14:37:48;9.70;;;4.07;;
34960;SDS011;30789;52.030;7.110;2023-07-09T14:40:16;5.90;;;4.30;;
34960;SDS011;30789;52.030;7.110;2023-07-09T14:42:45;9.85;;;4.35;;
34960;SDS011;30789;52.030;7.110;2023-07-09T14:45:17;7.90;;;4.63;;
34960;SDS011;30789;52.030;7.110;2023-07-09T14:47:45;5.63;;;3.88;;
34960;SDS011;30789;52.030;7.110;2023-07-09T14:50:12;7.20;;;4.05;;
34960;SDS011;30789;52.030;7.110;2023-07-09T14:52:39;5.57;;;4.15;;
34960;SDS011;30789;52.030;7.110;2023-07-09T14:55:12;4.60;;;3.97;;
34960;SDS011;30789;52.030;7.110;2023-07-09T14:57:40;6.68;;;4.38;;
34960;SDS011;30789;52.030;7.110;2023-07-09T15:00:08;7.80;;;4.68;;
34960;SDS011;30789;52.030;7.110;2023-07-09T15:02:40;7.32;;;4.50;;
34960;SDS011;30789;52.030;7.110;2023-07-09T15:05:11;7.57;;;4.57;;
34960;SDS011;30789;52.030;7.110;2023-07-09T15:07:41;9.25;;;4.22;;